createdAt,value
2022-10-30T00:00:52.675Z,11.57
2022-10-30T00:03:20.378Z,11.50
2022-10-30T00:05:51.585Z,11.77
2022-10-30T00:08:21.272Z,11.10
2022-10-30T00:10:50.217Z,13.20
2022-10-30T00:13:18.284Z,11.93
2022-10-30T00:15:48.663Z,14.00
2022-10-30T00:18:16.459Z,12.20
2022-10-30T00:20:44.483Z,10.83
2022-10-30T00:23:13.327Z,13.40
2022-10-30T00:25:40.814Z,11.93
2022-10-30T00:28:08.634Z,12.60
2022-10-30T00:30:36.810Z,11.83
2022-10-30T00:33:05.239Z,13.67
2022-10-30T00:35:33.108Z,13.40
2022-10-30T00:38:01.603Z,13.23
2022-10-30T00:40:30.854Z,12.37
2022-10-30T00:42:58.352Z,12.67
2022-10-30T00:45:26.102Z,12.10
2022-10-30T00:47:54.974Z,12.97
2022-10-30T00:53:01.838Z,13.50
2022-10-30T00:55:33.326Z,13.63
2022-10-30T00:58:03.071Z,12.57
2022-10-30T01:00:30.825Z,12.83
2022-10-30T01:02:59.284Z,11.63
2022-10-30T01:05:29.071Z,11.60
2022-10-30T01:07:56.899Z,11.23
2022-10-30T01:10:24.771Z,12.43
2022-10-30T01:12:54.948Z,12.80
2022-10-30T01:15:26.005Z,11.67
2022-10-30T01:18:15.987Z,11.83
2022-10-30T01:21:00.894Z,13.00
2022-10-30T01:23:38.141Z,12.90
2022-10-30T01:26:13.511Z,11.77
2022-10-30T01:28:56.509Z,10.83
2022-10-30T01:31:34.856Z,10.53
2022-10-30T01:34:12.302Z,13.13
2022-10-30T01:36:44.702Z,11.50
2022-10-30T01:39:14.564Z,11.93
2022-10-30T01:41:42.072Z,12.20
2022-10-30T01:44:14.938Z,11.40
2022-10-30T01:46:55.550Z,12.73
2022-10-30T01:49:43.696Z,11.60
2022-10-30T01:52:14.835Z,13.07
2022-10-30T01:54:47.723Z,13.47
2022-10-30T01:57:22.833Z,12.90
2022-10-30T01:59:54.685Z,11.73
2022-10-30T02:02:22.412Z,13.43
2022-10-30T02:04:50.391Z,14.10
2022-10-30T02:07:18.072Z,12.60
2022-10-30T02:09:45.560Z,13.33
2022-10-30T02:12:13.111Z,11.40
2022-10-30T02:14:44.259Z,11.50
2022-10-30T02:17:13.364Z,14.17
2022-10-30T02:19:40.871Z,10.67
2022-10-30T02:22:09.746Z,12.47
2022-10-30T02:24:37.253Z,10.40
2022-10-30T02:27:05.067Z,11.20
2022-10-30T02:29:32.540Z,11.57
2022-10-30T02:32:00.099Z,11.30
2022-10-30T02:34:27.626Z,12.03
2022-10-30T02:36:55.110Z,9.93
2022-10-30T02:39:24.037Z,10.20
2022-10-30T02:41:51.510Z,11.10
2022-10-30T02:44:19.028Z,11.57
2022-10-30T02:46:46.520Z,11.27
2022-10-30T02:49:13.972Z,11.77
2022-10-30T02:51:41.478Z,11.30
2022-10-30T02:54:08.992Z,10.80
2022-10-30T02:56:37.850Z,11.07
2022-10-30T02:59:05.319Z,11.60
2022-10-30T03:01:32.902Z,11.83
2022-10-30T03:04:00.519Z,11.23
2022-10-30T03:06:28.110Z,10.80
2022-10-30T03:08:55.553Z,11.33
2022-10-30T03:11:23.080Z,10.93
2022-10-30T03:13:51.927Z,11.37
2022-10-30T03:16:21.147Z,10.07
2022-10-30T03:18:49.147Z,10.97
2022-10-30T03:21:18.418Z,11.20
2022-10-30T03:23:46.444Z,12.97
2022-10-30T03:26:13.993Z,13.47
2022-10-30T03:28:41.505Z,13.60
2022-10-30T03:31:11.617Z,12.87
2022-10-30T03:33:39.424Z,12.17
2022-10-30T03:36:08.083Z,11.40
2022-10-30T03:38:35.827Z,12.03
2022-10-30T03:41:03.341Z,12.93
2022-10-30T03:43:30.924Z,12.10
2022-10-30T03:45:58.495Z,12.10
2022-10-30T03:48:29.060Z,13.43
2022-10-30T03:50:57.357Z,11.83
2022-10-30T03:53:26.199Z,12.90
2022-10-30T03:55:54.187Z,11.67
2022-10-30T03:58:21.725Z,12.30
2022-10-30T04:00:49.231Z,13.60
2022-10-30T04:03:16.691Z,12.80
2022-10-30T04:05:45.552Z,12.70
2022-10-30T04:08:14.503Z,12.90
2022-10-30T04:10:43.584Z,12.67
2022-10-30T04:13:12.465Z,12.57
2022-10-30T04:15:39.986Z,12.03
2022-10-30T04:18:07.997Z,15.40
2022-10-30T04:20:35.507Z,12.73
2022-10-30T04:23:06.830Z,11.50
2022-10-30T04:25:35.693Z,11.30
2022-10-30T04:28:04.101Z,12.60
2022-10-30T04:30:35.249Z,12.73
2022-10-30T04:33:03.716Z,11.93
2022-10-30T04:35:32.492Z,11.40
2022-10-30T04:38:01.265Z,12.27
2022-10-30T04:40:32.465Z,11.50
2022-10-30T04:43:00.816Z,10.97
2022-10-30T04:45:28.483Z,10.90
2022-10-30T04:48:01.848Z,10.80
2022-10-30T04:50:29.508Z,10.90
2022-10-30T04:53:01.464Z,12.70
2022-10-30T04:55:30.702Z,11.30
2022-10-30T04:57:59.098Z,11.40
2022-10-30T05:00:27.726Z,12.00
2022-10-30T05:02:55.369Z,11.27
2022-10-30T05:05:22.854Z,11.10
2022-10-30T05:07:50.352Z,11.10
2022-10-30T05:10:18.318Z,10.27
2022-10-30T05:12:47.293Z,11.17
2022-10-30T05:15:15.188Z,11.57
2022-10-30T05:17:42.758Z,12.13
2022-10-30T05:20:14.765Z,10.80
2022-10-30T05:22:45.377Z,10.93
2022-10-30T05:25:12.920Z,10.87
2022-10-30T05:27:40.492Z,11.30
2022-10-30T05:30:10.542Z,11.33
2022-10-30T05:32:38.052Z,11.97
2022-10-30T05:35:06.164Z,11.37
2022-10-30T05:37:33.754Z,10.27
2022-10-30T05:40:01.219Z,11.30
2022-10-30T05:42:28.721Z,12.20
2022-10-30T05:45:00.831Z,10.40
2022-10-30T05:47:30.114Z,10.40
2022-10-30T05:49:57.584Z,10.87
2022-10-30T05:52:25.071Z,11.30
2022-10-30T05:54:52.564Z,9.90
2022-10-30T05:57:20.041Z,11.23
2022-10-30T05:59:47.571Z,9.60
2022-10-30T06:02:15.133Z,9.30
2022-10-30T06:04:43.959Z,9.83
2022-10-30T06:07:11.708Z,10.53
2022-10-30T06:09:39.183Z,9.20
2022-10-30T06:12:07.141Z,9.80
2022-10-30T06:14:34.636Z,9.93
2022-10-30T06:17:02.116Z,10.00
2022-10-30T06:19:29.683Z,9.00
2022-10-30T06:21:58.545Z,9.53
2022-10-30T06:24:26.051Z,9.57
2022-10-30T06:26:53.523Z,10.23
2022-10-30T06:29:21.097Z,10.27
2022-10-30T06:31:48.551Z,9.60
2022-10-30T06:34:16.047Z,9.87
2022-10-30T06:36:43.583Z,10.27
2022-10-30T06:39:12.466Z,9.60
2022-10-30T06:41:39.935Z,11.27
2022-10-30T06:44:07.422Z,11.70
2022-10-30T06:46:34.876Z,11.73
2022-10-30T06:49:02.577Z,13.40
2022-10-30T06:51:30.156Z,14.20
2022-10-30T06:53:57.612Z,12.37
2022-10-30T06:56:26.488Z,13.40
2022-10-30T06:58:53.965Z,11.70
2022-10-30T07:01:21.525Z,9.83
2022-10-30T07:03:49.066Z,10.20
2022-10-30T07:06:16.539Z,9.30
2022-10-30T07:08:44.066Z,9.73
2022-10-30T07:11:11.541Z,8.90
2022-10-30T07:13:40.360Z,10.13
2022-10-30T07:16:08.170Z,9.70
2022-10-30T07:18:35.648Z,11.03
2022-10-30T07:21:03.118Z,10.80
2022-10-30T07:23:30.607Z,10.77
2022-10-30T07:26:03.321Z,9.63
2022-10-30T07:28:32.379Z,11.10
2022-10-30T07:31:01.310Z,10.23
2022-10-30T07:33:28.803Z,10.83
2022-10-30T07:35:56.293Z,9.50
2022-10-30T07:38:24.051Z,10.43
2022-10-30T07:40:53.513Z,10.27
2022-10-30T07:43:21.090Z,10.50
2022-10-30T07:45:48.660Z,10.97
2022-10-30T07:48:17.555Z,10.50
2022-10-30T07:50:45.096Z,10.63
2022-10-30T07:53:12.588Z,10.60
2022-10-30T07:55:40.060Z,9.80
2022-10-30T07:58:07.560Z,10.77
2022-10-30T08:00:35.021Z,10.17
2022-10-30T08:03:02.890Z,10.97
2022-10-30T08:05:31.915Z,10.33
2022-10-30T08:07:59.814Z,11.87
2022-10-30T08:10:27.797Z,11.37
2022-10-30T08:12:55.354Z,10.10
2022-10-30T08:15:23.741Z,11.07
2022-10-30T08:17:51.922Z,11.30
2022-10-30T08:20:20.846Z,10.03
2022-10-30T08:22:50.356Z,11.10
2022-10-30T08:25:19.614Z,10.87
2022-10-30T08:27:52.250Z,12.00
2022-10-30T08:30:19.828Z,11.43
2022-10-30T08:32:47.338Z,11.73
2022-10-30T08:35:19.814Z,11.23
2022-10-30T08:37:49.115Z,12.17
2022-10-30T08:40:16.829Z,11.57
2022-10-30T08:42:44.303Z,11.47
2022-10-30T08:45:11.959Z,12.13
2022-10-30T08:47:39.426Z,12.27
2022-10-30T08:50:07.250Z,11.37
2022-10-30T08:52:34.746Z,13.33
2022-10-30T08:55:03.661Z,13.87
2022-10-30T08:57:36.610Z,13.37
2022-10-30T09:00:04.832Z,16.17
2022-10-30T09:02:32.493Z,13.87
2022-10-30T09:05:00.175Z,14.97
2022-10-30T09:07:27.742Z,17.90
2022-10-30T09:09:55.266Z,15.03
2022-10-30T09:12:24.175Z,15.50
2022-10-30T09:14:51.672Z,14.47
2022-10-30T09:17:19.173Z,13.53
2022-10-30T09:22:19.214Z,15.50
2022-10-30T09:24:46.720Z,15.37
2022-10-30T09:27:14.718Z,14.00
2022-10-30T09:29:43.578Z,13.97
2022-10-30T09:32:11.442Z,15.40
2022-10-30T09:34:39.603Z,14.57
2022-10-30T09:37:07.143Z,15.37
2022-10-30T09:39:34.621Z,15.53
2022-10-30T09:42:16.033Z,14.70
2022-10-30T09:45:15.208Z,15.20
2022-10-30T09:47:46.330Z,13.87
2022-10-30T09:50:25.798Z,13.83
2022-10-30T09:52:59.684Z,14.60
2022-10-30T09:55:35.778Z,12.83
2022-10-30T09:58:16.857Z,12.37
2022-10-30T10:00:48.956Z,11.43
2022-10-30T10:03:26.780Z,12.10
2022-10-30T10:05:57.215Z,11.53
2022-10-30T10:08:29.401Z,13.27
2022-10-30T10:11:00.038Z,11.90
2022-10-30T10:13:31.682Z,10.93
2022-10-30T10:16:06.789Z,11.70
2022-10-30T10:18:38.973Z,9.87
2022-10-30T10:21:10.668Z,9.30
2022-10-30T10:23:44.522Z,9.77
2022-10-30T10:26:21.762Z,9.00
2022-10-30T10:28:56.366Z,8.13
2022-10-30T10:31:35.255Z,9.03
2022-10-30T10:34:24.315Z,7.57
2022-10-30T10:36:57.610Z,8.63
2022-10-30T10:39:34.974Z,7.70
2022-10-30T10:42:10.101Z,7.97
2022-10-30T10:44:47.782Z,8.60
2022-10-30T10:47:37.098Z,6.90
2022-10-30T10:50:17.134Z,7.63
2022-10-30T10:52:48.763Z,6.87
2022-10-30T10:55:18.494Z,7.70
2022-10-30T10:57:46.504Z,7.10
2022-10-30T11:00:17.605Z,7.60
2022-10-30T11:02:48.869Z,8.13
2022-10-30T11:05:21.427Z,7.10
2022-10-30T11:07:50.399Z,6.20
2022-10-30T11:10:19.879Z,6.80
2022-10-30T11:12:47.541Z,5.80
2022-10-30T11:15:23.454Z,6.57
2022-10-30T11:17:56.933Z,7.60
2022-10-30T11:20:30.173Z,5.73
2022-10-30T11:22:57.919Z,5.80
2022-10-30T11:25:30.321Z,6.47
2022-10-30T11:28:00.655Z,5.17
2022-10-30T11:30:29.334Z,6.60
2022-10-30T11:32:59.940Z,5.77
2022-10-30T11:35:27.741Z,5.93
2022-10-30T11:38:13.215Z,5.43
2022-10-30T11:40:41.336Z,4.70
2022-10-30T11:43:10.287Z,4.40
2022-10-30T11:45:40.809Z,5.30
2022-10-30T11:48:13.849Z,5.00
2022-10-30T11:50:48.114Z,4.73
2022-10-30T11:53:21.678Z,4.90
2022-10-30T11:55:50.054Z,4.63
2022-10-30T11:58:24.530Z,4.33
2022-10-30T12:01:01.102Z,4.00
2022-10-30T12:03:35.050Z,3.77
2022-10-30T12:06:09.305Z,4.10
2022-10-30T12:08:36.896Z,5.80
2022-10-30T12:11:06.471Z,3.80
2022-10-30T12:13:38.803Z,4.57
2022-10-30T12:16:14.535Z,4.00
2022-10-30T12:18:43.975Z,4.37
2022-10-30T12:21:12.033Z,3.47
2022-10-30T12:23:39.746Z,4.77
2022-10-30T12:26:11.120Z,4.20
2022-10-30T12:28:39.228Z,6.50
2022-10-30T12:31:11.116Z,5.00
2022-10-30T12:33:43.592Z,4.73
2022-10-30T12:36:13.044Z,5.17
2022-10-30T12:38:44.082Z,4.20
2022-10-30T12:41:16.638Z,4.60
2022-10-30T12:43:47.153Z,4.47
2022-10-30T12:46:33.181Z,4.80
2022-10-30T12:49:09.860Z,4.40
2022-10-30T12:51:43.144Z,4.27
2022-10-30T12:54:18.863Z,4.60
2022-10-30T12:56:50.033Z,4.60
2022-10-30T12:59:36.619Z,4.17
2022-10-30T13:02:14.241Z,3.77
2022-10-30T13:04:45.968Z,4.33
2022-10-30T13:07:19.017Z,3.97
2022-10-30T13:10:02.048Z,4.10
2022-10-30T13:12:33.700Z,3.60
2022-10-30T13:15:05.139Z,3.03
2022-10-30T13:17:32.655Z,3.90
2022-10-30T13:20:01.621Z,4.07
2022-10-30T13:22:32.301Z,3.47
2022-10-30T13:25:04.257Z,5.30
2022-10-30T13:27:41.244Z,3.70
2022-10-30T13:30:12.204Z,3.70
2022-10-30T13:32:46.680Z,4.00
2022-10-30T13:35:22.694Z,3.40
2022-10-30T13:37:56.387Z,4.57
2022-10-30T13:40:32.508Z,4.03
2022-10-30T13:43:05.450Z,3.80
2022-10-30T13:45:58.166Z,3.67
2022-10-30T13:48:35.018Z,4.13
2022-10-30T13:51:36.190Z,3.87
2022-10-30T13:54:10.334Z,4.07
2022-10-30T13:56:37.944Z,4.90
2022-10-30T13:59:19.132Z,3.23
2022-10-30T14:01:54.465Z,4.57
2022-10-30T14:04:33.343Z,4.33
2022-10-30T14:07:12.258Z,4.07
2022-10-30T14:09:43.401Z,3.67
2022-10-30T14:12:48.535Z,4.30
2022-10-30T14:15:22.248Z,4.63
2022-10-30T14:18:27.680Z,4.20
2022-10-30T14:20:57.190Z,4.57
2022-10-30T14:23:28.725Z,4.10
2022-10-30T14:26:15.986Z,4.63
2022-10-30T14:28:45.182Z,3.27
2022-10-30T14:31:14.165Z,3.70
2022-10-30T14:33:46.981Z,5.03
2022-10-30T14:36:22.910Z,4.10
2022-10-30T14:38:56.845Z,4.60
2022-10-30T14:41:56.388Z,4.10
2022-10-30T14:44:48.554Z,3.80
2022-10-30T14:47:39.496Z,3.90
2022-10-30T14:50:16.731Z,4.20
2022-10-30T14:52:52.922Z,3.90
2022-10-30T14:55:28.276Z,3.50
2022-10-30T14:58:17.332Z,5.60
2022-10-30T15:00:45.557Z,8.07
2022-10-30T15:03:44.104Z,10.90
2022-10-30T15:06:22.075Z,6.47
2022-10-30T15:08:59.129Z,6.00
2022-10-30T15:11:48.002Z,5.13
2022-10-30T15:14:21.669Z,4.60
2022-10-30T15:17:00.402Z,5.27
2022-10-30T15:19:28.887Z,4.37
2022-10-30T15:21:57.572Z,3.73
2022-10-30T15:24:31.986Z,4.50
2022-10-30T15:27:01.909Z,5.50
2022-10-30T15:29:31.904Z,4.73
2022-10-30T15:32:01.195Z,4.30
2022-10-30T15:34:30.933Z,4.20
2022-10-30T15:36:59.808Z,4.93
2022-10-30T15:39:27.754Z,5.40
2022-10-30T15:41:57.972Z,4.97
2022-10-30T15:44:29.116Z,4.83
2022-10-30T15:46:58.051Z,5.40
2022-10-30T15:49:30.953Z,5.33
2022-10-30T15:52:00.048Z,4.53
2022-10-30T15:54:28.767Z,5.60
2022-10-30T15:59:52.741Z,4.70
2022-10-30T16:02:22.548Z,4.53
2022-10-30T16:04:50.784Z,4.00
2022-10-30T16:07:20.323Z,4.53
2022-10-30T16:09:55.427Z,4.53
2022-10-30T16:12:25.928Z,4.80
2022-10-30T16:14:55.274Z,4.60
2022-10-30T16:17:23.199Z,4.70
2022-10-30T16:19:53.132Z,5.40
2022-10-30T16:22:24.998Z,6.50
2022-10-30T16:24:52.952Z,6.90
2022-10-30T16:27:22.258Z,7.60
2022-10-30T16:29:51.581Z,11.57
2022-10-30T16:32:22.433Z,15.10
2022-10-30T16:34:51.225Z,20.43
2022-10-30T16:37:22.040Z,22.80
2022-10-30T16:39:50.876Z,23.47
2022-10-30T16:42:20.875Z,21.63
2022-10-30T16:44:48.966Z,21.37
2022-10-30T16:47:27.129Z,23.87
2022-10-30T16:49:57.248Z,23.10
2022-10-30T16:52:28.479Z,22.20
2022-10-30T16:55:01.513Z,18.87
2022-10-30T16:57:30.707Z,14.77
2022-10-30T16:59:59.026Z,15.60
2022-10-30T17:02:30.860Z,13.50
2022-10-30T17:05:03.400Z,12.33
2022-10-30T17:07:31.132Z,12.03
2022-10-30T17:09:58.838Z,13.63
2022-10-30T17:12:27.900Z,15.20
2022-10-30T17:14:56.922Z,20.63
2022-10-30T17:17:31.595Z,20.53
2022-10-30T17:20:01.924Z,21.83
2022-10-30T17:22:30.268Z,25.77
2022-10-30T17:24:59.084Z,27.03
2022-10-30T17:27:46.023Z,28.03
2022-10-30T17:30:37.900Z,23.80
2022-10-30T17:33:27.001Z,24.80
2022-10-30T17:38:27.795Z,21.17
2022-10-30T17:40:55.430Z,21.07
2022-10-30T17:43:24.820Z,21.00
2022-10-30T17:45:52.524Z,21.37
2022-10-30T17:48:22.741Z,22.23
2022-10-30T17:50:50.578Z,21.43
2022-10-30T17:53:21.669Z,23.10
2022-10-30T17:55:51.793Z,22.63
2022-10-30T17:58:31.492Z,18.80
2022-10-30T18:00:59.442Z,17.17
2022-10-30T18:03:28.934Z,14.83
2022-10-30T18:05:58.299Z,12.30
2022-10-30T18:08:26.115Z,11.40
2022-10-30T18:10:53.927Z,9.83
2022-10-30T18:13:21.937Z,8.53
2022-10-30T18:15:53.872Z,8.87
2022-10-30T18:18:21.525Z,8.87
2022-10-30T18:20:50.632Z,8.03
2022-10-30T18:23:46.802Z,7.20
2022-10-30T18:26:08.439Z,6.77
2022-10-30T18:28:36.153Z,5.97
2022-10-30T18:31:03.758Z,5.20
2022-10-30T18:33:31.472Z,5.03
2022-10-30T18:36:00.736Z,6.13
2022-10-30T18:38:28.570Z,5.90
2022-10-30T18:40:56.478Z,5.50
2022-10-30T18:43:24.114Z,7.57
2022-10-30T18:45:52.008Z,7.07
2022-10-30T18:48:19.789Z,6.57
2022-10-30T18:50:47.555Z,5.57
2022-10-30T18:53:18.804Z,6.50
2022-10-30T18:55:49.616Z,6.10
2022-10-30T18:58:17.391Z,5.43
2022-10-30T19:01:10.681Z,6.37
2022-10-30T19:03:32.672Z,5.60
2022-10-30T19:06:00.341Z,5.30
2022-10-30T19:08:29.285Z,5.77
2022-10-30T19:10:58.119Z,6.13
2022-10-30T19:13:25.812Z,5.17
2022-10-30T19:16:00.146Z,6.67
2022-10-30T19:18:31.157Z,6.47
2022-10-30T19:21:09.140Z,5.80
2022-10-30T19:23:42.151Z,6.83
2022-10-30T19:26:13.322Z,4.93
2022-10-30T19:28:41.570Z,6.00
2022-10-30T19:31:12.476Z,5.20
2022-10-30T19:33:40.181Z,5.93
2022-10-30T19:36:08.296Z,5.77
2022-10-30T19:38:35.895Z,6.13
2022-10-30T19:41:07.248Z,5.57
2022-10-30T19:43:35.031Z,6.53
2022-10-30T19:46:03.785Z,6.30
2022-10-30T19:51:19.294Z,5.93
2022-10-30T19:53:46.871Z,6.83
2022-10-30T19:56:16.131Z,6.73
2022-10-30T19:58:43.750Z,6.90
2022-10-30T20:01:13.497Z,7.00
2022-10-30T20:03:41.199Z,6.10
2022-10-30T20:06:10.567Z,5.80
2022-10-30T20:08:38.230Z,6.87
2022-10-30T20:11:06.086Z,6.67
2022-10-30T20:13:35.241Z,5.80
2022-10-30T20:16:04.917Z,6.50
2022-10-30T20:18:35.023Z,6.97
2022-10-30T20:21:04.231Z,6.27
2022-10-30T20:23:32.074Z,7.47
2022-10-30T20:26:02.353Z,6.93
2022-10-30T20:28:34.302Z,7.10
2022-10-30T20:31:03.666Z,6.63
2022-10-30T20:33:31.332Z,7.07
2022-10-30T20:35:59.368Z,7.70
2022-10-30T20:38:29.250Z,8.83
2022-10-30T20:40:58.028Z,8.33
2022-10-30T20:43:32.451Z,9.67
2022-10-30T20:46:00.494Z,8.80
2022-10-30T20:48:30.106Z,7.70
2022-10-30T20:51:01.296Z,7.43
2022-10-30T20:53:29.946Z,6.57
2022-10-30T20:55:59.298Z,7.47
2022-10-30T20:58:28.345Z,6.80
2022-10-30T21:00:57.911Z,7.23
2022-10-30T21:03:25.710Z,7.40
2022-10-30T21:05:57.517Z,8.03
2022-10-30T21:08:25.259Z,7.20
2022-10-30T21:11:03.323Z,6.13
2022-10-30T21:13:31.158Z,6.13
2022-10-30T21:16:02.217Z,5.97
2022-10-30T21:18:30.263Z,4.93
2022-10-30T21:21:02.518Z,5.53
2022-10-30T21:23:30.121Z,5.10
2022-10-30T21:26:01.040Z,5.67
2022-10-30T21:28:28.790Z,5.37
2022-10-30T21:30:56.574Z,5.60
2022-10-30T21:33:24.235Z,6.10
2022-10-30T21:35:51.839Z,6.57
2022-10-30T21:38:20.899Z,5.77
2022-10-30T21:40:55.749Z,6.10
2022-10-30T21:43:23.362Z,7.60
2022-10-30T21:45:51.022Z,6.90
2022-10-30T21:48:18.648Z,7.37
2022-10-30T21:50:46.296Z,6.17
2022-10-30T21:53:14.007Z,6.80
2022-10-30T21:55:43.002Z,6.37
2022-10-30T21:58:10.625Z,6.87
2022-10-30T22:00:38.532Z,8.70
2022-10-30T22:03:06.307Z,10.40
2022-10-30T22:05:35.208Z,6.60
2022-10-30T22:08:03.094Z,6.90
2022-10-30T22:10:32.153Z,7.00
2022-10-30T22:13:01.202Z,6.27
2022-10-30T22:15:29.111Z,6.77
2022-10-30T22:17:57.031Z,5.90
2022-10-30T22:20:27.278Z,6.53
2022-10-30T22:22:56.508Z,6.60
2022-10-30T22:25:24.165Z,5.90
2022-10-30T22:27:51.897Z,6.50
2022-10-30T22:30:21.120Z,5.43
2022-10-30T22:32:48.793Z,5.57
2022-10-30T22:35:16.590Z,5.43
2022-10-30T22:37:44.255Z,5.50
2022-10-30T22:40:12.321Z,8.53
2022-10-30T22:42:39.984Z,5.40
2022-10-30T22:45:09.137Z,5.70
2022-10-30T22:47:38.031Z,5.03
2022-10-30T22:50:06.709Z,4.90
2022-10-30T22:52:34.369Z,6.33
2022-10-30T22:55:01.951Z,5.43
2022-10-30T22:57:29.557Z,4.80
2022-10-30T22:59:59.563Z,5.27
2022-10-30T23:02:29.796Z,5.67
2022-10-30T23:04:58.857Z,5.70
2022-10-30T23:07:26.505Z,5.50
2022-10-30T23:09:54.160Z,4.40
2022-10-30T23:12:21.859Z,5.17
2022-10-30T23:14:49.509Z,5.87
2022-10-30T23:17:17.323Z,5.00
2022-10-30T23:19:47.029Z,4.40
2022-10-30T23:22:16.161Z,5.47
2022-10-30T23:24:43.824Z,6.20
2022-10-30T23:27:12.941Z,5.50
2022-10-30T23:29:40.473Z,5.50
2022-10-30T23:32:08.134Z,4.67
2022-10-30T23:34:35.847Z,4.90
2022-10-30T23:37:03.529Z,5.67
2022-10-30T23:39:32.556Z,5.30
2022-10-30T23:42:00.450Z,5.13
2022-10-30T23:44:29.397Z,5.37
2022-10-30T23:46:57.772Z,5.10
2022-10-30T23:49:27.991Z,5.00
2022-10-30T23:51:57.914Z,6.00
2022-10-30T23:54:25.692Z,7.03
2022-10-30T23:56:54.749Z,7.87
2022-10-30T23:59:24.576Z,6.50
